Terminal Aerodrome Forecast
Issued by NWS

Home | Current Version | Previous Version | Text Only | Print | Product List | Glossary On
Versions: 1 2 3 4 5 6 7 8 9 10 11 12 13 14 15 16 17 18 19 20 21
000
FTUS42 KILM 081258 AAA
TAFCRE
TAF AMD
KCRE 081258Z 0813/0912 VRB03KT P6SM OVC009
      TEMPO 0813/0815 SCT009 OVC015
     FM081500 29005KT P6SM SCT020
     FM081900 33007KT P6SM SCT050 BKN100
     FM090000 36006KT P6SM SCT250=

USA.gov is the U.S. government's official web portal to all federal, state and local government web resources and services.